sensor_id;sensor_type;location;lat;lon;timestamp;pressure;altitude;pressure_sealevel;temperature;humidity
48874;BME280;66155;46.204;5.220;2023-02-15T00:04:45;99878.66;;;9.79;42.02
48874;BME280;66155;46.204;5.220;2023-02-15T00:09:46;99879.31;;;9.74;42.10
48874;BME280;66155;46.204;5.220;2023-02-15T00:14:47;99874.72;;;9.69;42.48
48874;BME280;66155;46.204;5.220;2023-02-15T00:19:47;99874.84;;;9.56;43.67
48874;BME280;66155;46.204;5.220;2023-02-15T00:24:48;99876.19;;;9.59;43.39
48874;BME280;66155;46.204;5.220;2023-02-15T00:29:50;99865.41;;;9.55;44.12
48874;BME280;66155;46.204;5.220;2023-02-15T00:34:50;99876.25;;;9.52;43.89
48874;BME280;66155;46.204;5.220;2023-02-15T00:39:50;99875.28;;;9.46;44.97
48874;BME280;66155;46.204;5.220;2023-02-15T00:44:51;99877.72;;;9.41;44.45
48874;BME280;66155;46.204;5.220;2023-02-15T00:49:51;99874.91;;;9.43;45.45
48874;BME280;66155;46.204;5.220;2023-02-15T00:54:52;99881.53;;;9.39;45.44
48874;BME280;66155;46.204;5.220;2023-02-15T00:59:52;99887.16;;;9.36;45.60
48874;BME280;66155;46.204;5.220;2023-02-15T01:04:52;99883.41;;;9.25;45.68
48874;BME280;66155;46.204;5.220;2023-02-15T01:09:53;99887.84;;;9.18;46.17
48874;BME280;66155;46.204;5.220;2023-02-15T01:14:53;99885.69;;;9.08;46.24
48874;BME280;66155;46.204;5.220;2023-02-15T01:19:53;99885.91;;;9.00;46.19
48874;BME280;66155;46.204;5.220;2023-02-15T01:24:54;99883.97;;;8.88;45.81
48874;BME280;66155;46.204;5.220;2023-02-15T01:29:54;99885.41;;;8.78;45.96
48874;BME280;66155;46.204;5.220;2023-02-15T01:34:54;99882.81;;;8.71;45.98
48874;BME280;66155;46.204;5.220;2023-02-15T01:39:55;99888.22;;;8.56;46.08
48874;BME280;66155;46.204;5.220;2023-02-15T01:45:01;99894.66;;;8.47;46.65
48874;BME280;66155;46.204;5.220;2023-02-15T01:55:02;99881.47;;;8.35;46.64
48874;BME280;66155;46.204;5.220;2023-02-15T02:00:06;99885.25;;;8.26;47.12
48874;BME280;66155;46.204;5.220;2023-02-15T02:05:07;99880.69;;;8.21;47.66
48874;BME280;66155;46.204;5.220;2023-02-15T02:10:11;99884.69;;;8.10;47.68
48874;BME280;66155;46.204;5.220;2023-02-15T02:15:13;99885.66;;;8.03;47.52
48874;BME280;66155;46.204;5.220;2023-02-15T02:20:24;99880.50;;;7.96;47.94
48874;BME280;66155;46.204;5.220;2023-02-15T02:46:32;99846.94;;;7.74;49.50
48874;BME280;66155;46.204;5.220;2023-02-15T02:51:34;99855.53;;;7.75;48.74
48874;BME280;66155;46.204;5.220;2023-02-15T02:56:46;99863.72;;;7.78;49.93
48874;BME280;66155;46.204;5.220;2023-02-15T03:01:54;99851.34;;;7.87;49.85
48874;BME280;66155;46.204;5.220;2023-02-15T03:07:01;99849.56;;;7.94;49.82
48874;BME280;66155;46.204;5.220;2023-02-15T03:12:03;99849.94;;;7.91;50.72
48874;BME280;66155;46.204;5.220;2023-02-15T03:17:05;99850.13;;;7.90;49.93
48874;BME280;66155;46.204;5.220;2023-02-15T03:22:13;99845.53;;;7.85;50.39
48874;BME280;66155;46.204;5.220;2023-02-15T03:27:20;99846.34;;;7.86;50.75
48874;BME280;66155;46.204;5.220;2023-02-15T03:32:23;99842.75;;;7.87;50.48
48874;BME280;66155;46.204;5.220;2023-02-15T03:37:35;99841.16;;;7.86;50.43
48874;BME280;66155;46.204;5.220;2023-02-15T03:42:39;99842.53;;;7.81;50.50
48874;BME280;66155;46.204;5.220;2023-02-15T03:47:43;99841.94;;;7.79;50.61
48874;BME280;66155;46.204;5.220;2023-02-15T03:52:44;99842.53;;;7.81;49.98
48874;BME280;66155;46.204;5.220;2023-02-15T03:57:45;99835.75;;;7.74;50.24
48874;BME280;66155;46.204;5.220;2023-02-15T04:08:17;99838.34;;;7.74;49.81
48874;BME280;66155;46.204;5.220;2023-02-15T04:13:30;99837.56;;;7.67;50.19
48874;BME280;66155;46.204;5.220;2023-02-15T04:18:37;99841.16;;;7.59;50.37
48874;BME280;66155;46.204;5.220;2023-02-15T04:23:56;99833.38;;;7.59;50.30
48874;BME280;66155;46.204;5.220;2023-02-15T04:29:15;99847.13;;;7.53;50.20
48874;BME280;66155;46.204;5.220;2023-02-15T04:34:15;99854.91;;;7.59;50.00
48874;BME280;66155;46.204;5.220;2023-02-15T04:39:17;99853.94;;;7.60;49.68
48874;BME280;66155;46.204;5.220;2023-02-15T04:44:18;99855.91;;;7.58;49.81
48874;BME280;66155;46.204;5.220;2023-02-15T04:49:18;99861.88;;;7.52;49.89
48874;BME280;66155;46.204;5.220;2023-02-15T04:54:19;99862.69;;;7.53;49.72
48874;BME280;66155;46.204;5.220;2023-02-15T04:59:19;99854.31;;;7.51;49.78
48874;BME280;66155;46.204;5.220;2023-02-15T05:04:19;99866.06;;;7.47;49.82
48874;BME280;66155;46.204;5.220;2023-02-15T05:09:20;99853.69;;;7.42;50.33
48874;BME280;66155;46.204;5.220;2023-02-15T05:14:20;99851.69;;;7.37;50.34
48874;BME280;66155;46.204;5.220;2023-02-15T05:19:21;99858.66;;;7.37;50.90
48874;BME280;66155;46.204;5.220;2023-02-15T05:24:24;99847.69;;;7.35;50.87
48874;BME280;66155;46.204;5.220;2023-02-15T05:29:43;99849.69;;;7.39;50.01
48874;BME280;66155;46.204;5.220;2023-02-15T05:34:44;99852.28;;;7.39;50.81
48874;BME280;66155;46.204;5.220;2023-02-15T05:39:44;99851.88;;;7.29;51.42
48874;BME280;66155;46.204;5.220;2023-02-15T05:44:45;99858.66;;;7.37;50.76
48874;BME280;66155;46.204;5.220;2023-02-15T05:49:45;99852.28;;;7.39;50.77
48874;BME280;66155;46.204;5.220;2023-02-15T05:54:45;99858.06;;;7.41;50.89
48874;BME280;66155;46.204;5.220;2023-02-15T05:59:46;99858.84;;;7.35;51.05
48874;BME280;66155;46.204;5.220;2023-02-15T06:04:46;99864.25;;;7.34;51.31
48874;BME280;66155;46.204;5.220;2023-02-15T06:09:46;99869.19;;;7.22;51.30
48874;BME280;66155;46.204;5.220;2023-02-15T06:14:47;99878.22;;;6.84;52.74
48874;BME280;66155;46.204;5.220;2023-02-15T06:19:47;99872.06;;;6.92;51.71
48874;BME280;66155;46.204;5.220;2023-02-15T06:24:48;99880.63;;;6.93;51.74
48874;BME280;66155;46.204;5.220;2023-02-15T06:29:48;99870.00;;;6.74;52.58
48874;BME280;66155;46.204;5.220;2023-02-15T06:34:48;99886.75;;;6.78;51.93
48874;BME280;66155;46.204;5.220;2023-02-15T06:39:49;99897.94;;;6.85;52.11
48874;BME280;66155;46.204;5.220;2023-02-15T06:44:49;99894.78;;;6.90;51.77
48874;BME280;66155;46.204;5.220;2023-02-15T06:49:49;99897.75;;;6.87;51.80
48874;BME280;66155;46.204;5.220;2023-02-15T06:54:50;99902.47;;;6.77;52.15
48874;BME280;66155;46.204;5.220;2023-02-15T06:59:51;99890.34;;;6.77;51.81
48874;BME280;66155;46.204;5.220;2023-02-15T07:04:52;99888.91;;;6.75;52.43
48874;BME280;66155;46.204;5.220;2023-02-15T07:09:53;99906.44;;;6.73;52.19
48874;BME280;66155;46.204;5.220;2023-02-15T07:14:53;99906.81;;;6.70;52.84
48874;BME280;66155;46.204;5.220;2023-02-15T07:19:54;99905.63;;;6.65;53.29
48874;BME280;66155;46.204;5.220;2023-02-15T07:24:55;99903.78;;;6.59;53.85
48874;BME280;66155;46.204;5.220;2023-02-15T07:29:55;99908.38;;;6.57;54.46
48874;BME280;66155;46.204;5.220;2023-02-15T07:34:56;99908.44;;;6.42;54.35
48874;BME280;66155;46.204;5.220;2023-02-15T07:39:57;99917.31;;;6.55;53.89
48874;BME280;66155;46.204;5.220;2023-02-15T07:44:57;99910.47;;;6.75;52.92
48874;BME280;66155;46.204;5.220;2023-02-15T07:49:58;99910.88;;;6.79;53.25
48874;BME280;66155;46.204;5.220;2023-02-15T07:54:58;99913.75;;;6.97;52.85
48874;BME280;66155;46.204;5.220;2023-02-15T07:59:59;99904.25;;;7.11;52.27
48874;BME280;66155;46.204;5.220;2023-02-15T08:04:59;99901.91;;;7.23;52.35
48874;BME280;66155;46.204;5.220;2023-02-15T08:09:59;99904.53;;;7.36;51.95
48874;BME280;66155;46.204;5.220;2023-02-15T08:15:00;99896.59;;;7.45;52.02
48874;BME280;66155;46.204;5.220;2023-02-15T08:20:00;99893.22;;;7.57;52.01
48874;BME280;66155;46.204;5.220;2023-02-15T08:25:00;99894.44;;;7.68;51.73
48874;BME280;66155;46.204;5.220;2023-02-15T08:30:01;99884.25;;;7.73;51.98
48874;BME280;66155;46.204;5.220;2023-02-15T08:35:01;99884.25;;;7.87;51.68
48874;BME280;66155;46.204;5.220;2023-02-15T08:40:02;99888.28;;;7.96;51.66
48874;BME280;66155;46.204;5.220;2023-02-15T08:45:03;99884.28;;;8.07;52.02
48874;BME280;66155;46.204;5.220;2023-02-15T08:50:04;99869.91;;;8.17;52.21
48874;BME280;66155;46.204;5.220;2023-02-15T08:55:04;99877.09;;;8.15;53.47
48874;BME280;66155;46.204;5.220;2023-02-15T09:00:05;99871.47;;;8.25;53.26
48874;BME280;66155;46.204;5.220;2023-02-15T09:05:06;99871.88;;;8.35;52.99
48874;BME280;66155;46.204;5.220;2023-02-15T09:10:07;99868.09;;;8.51;53.03
48874;BME280;66155;46.204;5.220;2023-02-15T09:15:07;99870.03;;;8.63;52.68
48874;BME280;66155;46.204;5.220;2023-02-15T09:20:08;99869.81;;;8.71;52.80
48874;BME280;66155;46.204;5.220;2023-02-15T09:25:09;99860.59;;;8.82;52.70
48874;BME280;66155;46.204;5.220;2023-02-15T09:30:09;99862.94;;;8.97;52.68
48874;BME280;66155;46.204;5.220;2023-02-15T09:35:10;99850.88;;;9.09;52.47
48874;BME280;66155;46.204;5.220;2023-02-15T09:40:12;99848.84;;;9.18;51.80
48874;BME280;66155;46.204;5.220;2023-02-15T09:50:36;99850.22;;;9.52;51.20
48874;BME280;66155;46.204;5.220;2023-02-15T09:55:53;99849.34;;;9.65;50.95
48874;BME280;66155;46.204;5.220;2023-02-15T10:27:24;99844.25;;;10.45;50.24
48874;BME280;66155;46.204;5.220;2023-02-15T10:32:27;99852.88;;;10.64;50.01
48874;BME280;66155;46.204;5.220;2023-02-15T10:48:13;99842.38;;;11.20;49.39
48874;BME280;66155;46.204;5.220;2023-02-15T11:08:45;99832.66;;;11.93;45.53
48874;BME280;66155;46.204;5.220;2023-02-15T11:13:49;99825.63;;;12.17;45.70
48874;BME280;66155;46.204;5.220;2023-02-15T11:18:58;99822.88;;;12.35;44.56
48874;BME280;66155;46.204;5.220;2023-02-15T11:24:00;99821.91;;;12.53;44.79
48874;BME280;66155;46.204;5.220;2023-02-15T11:34:55;99808.09;;;12.82;41.41
48874;BME280;66155;46.204;5.220;2023-02-15T11:39:56;99793.72;;;12.84;41.23
48874;BME280;66155;46.204;5.220;2023-02-15T11:50:24;99804.34;;;13.06;40.53
48874;BME280;66155;46.204;5.220;2023-02-15T11:55:26;99789.38;;;13.19;40.57
48874;BME280;66155;46.204;5.220;2023-02-15T12:00:34;99797.03;;;13.37;40.43
48874;BME280;66155;46.204;5.220;2023-02-15T12:05:37;99771.88;;;13.53;39.14
48874;BME280;66155;46.204;5.220;2023-02-15T12:10:46;99776.31;;;13.69;39.19
48874;BME280;66155;46.204;5.220;2023-02-15T12:15:52;99768.66;;;14.02;40.09
48874;BME280;66155;46.204;5.220;2023-02-15T12:20:58;99756.56;;;14.23;38.81
48874;BME280;66155;46.204;5.220;2023-02-15T12:26:00;99758.72;;;14.26;37.95
48874;BME280;66155;46.204;5.220;2023-02-15T12:31:10;99758.91;;;14.41;37.77
48874;BME280;66155;46.204;5.220;2023-02-15T12:36:22;99751.84;;;14.64;36.60
48874;BME280;66155;46.204;5.220;2023-02-15T12:41:25;99760.38;;;14.81;36.45
48874;BME280;66155;46.204;5.220;2023-02-15T12:46:26;99744.75;;;14.92;36.14
48874;BME280;66155;46.204;5.220;2023-02-15T12:51:27;99746.75;;;15.07;35.69
48874;BME280;66155;46.204;5.220;2023-02-15T12:56:27;99738.22;;;15.27;34.92
48874;BME280;66155;46.204;5.220;2023-02-15T13:01:32;99734.16;;;15.46;34.30
48874;BME280;66155;46.204;5.220;2023-02-15T13:06:34;99728.03;;;15.73;34.06
48874;BME280;66155;46.204;5.220;2023-02-15T13:11:36;99725.75;;;15.87;34.04
48874;BME280;66155;46.204;5.220;2023-02-15T13:16:39;99733.31;;;16.31;33.94
48874;BME280;66155;46.204;5.220;2023-02-15T13:21:42;99721.84;;;17.19;32.51
48874;BME280;66155;46.204;5.220;2023-02-15T13:26:45;99718.16;;;17.36;32.67
48874;BME280;66155;46.204;5.220;2023-02-15T13:31:48;99715.00;;;17.28;31.61
48874;BME280;66155;46.204;5.220;2023-02-15T13:37:12;99714.19;;;17.59;30.48
48874;BME280;66155;46.204;5.220;2023-02-15T13:42:26;99712.50;;;18.49;30.98
48874;BME280;66155;46.204;5.220;2023-02-15T13:47:57;99709.53;;;19.00;28.59
48874;BME280;66155;46.204;5.220;2023-02-15T14:09:15;99682.16;;;22.40;24.59
48874;BME280;66155;46.204;5.220;2023-02-15T14:14:58;99666.22;;;25.52;21.19
48874;BME280;66155;46.204;5.220;2023-02-15T14:20:24;99671.03;;;28.81;18.26
48874;BME280;66155;46.204;5.220;2023-02-15T14:26:49;99655.72;;;29.29;18.55
48874;BME280;66155;46.204;5.220;2023-02-15T14:31:18;99671.22;;;26.80;20.12
48874;BME280;66155;46.204;5.220;2023-02-15T14:36:26;99682.78;;;23.53;21.86
48874;BME280;66155;46.204;5.220;2023-02-15T14:41:49;99690.91;;;23.08;22.09
48874;BME280;66155;46.204;5.220;2023-02-15T14:47:05;99681.66;;;25.38;19.77
48874;BME280;66155;46.204;5.220;2023-02-15T14:52:11;99677.59;;;25.91;19.56
48874;BME280;66155;46.204;5.220;2023-02-15T15:02:26;99672.72;;;27.76;17.38
48874;BME280;66155;46.204;5.220;2023-02-15T15:07:41;99676.72;;;28.79;17.36
48874;BME280;66155;46.204;5.220;2023-02-15T15:12:48;99664.59;;;27.73;17.88
48874;BME280;66155;46.204;5.220;2023-02-15T15:17:53;99679.50;;;27.00;18.59
48874;BME280;66155;46.204;5.220;2023-02-15T15:23:36;99675.44;;;25.85;18.81
48874;BME280;66155;46.204;5.220;2023-02-15T15:40:10;99682.75;;;23.85;21.24
48874;BME280;66155;46.204;5.220;2023-02-15T15:50:17;99704.59;;;19.76;25.63
48874;BME280;66155;46.204;5.220;2023-02-15T15:55:21;99706.88;;;19.00;26.74
48874;BME280;66155;46.204;5.220;2023-02-15T16:00:25;99707.41;;;18.62;27.23
48874;BME280;66155;46.204;5.220;2023-02-15T16:05:39;99713.13;;;18.30;28.01
48874;BME280;66155;46.204;5.220;2023-02-15T16:10:40;99713.31;;;17.84;28.33
48874;BME280;66155;46.204;5.220;2023-02-15T16:15:45;99722.09;;;17.43;29.59
48874;BME280;66155;46.204;5.220;2023-02-15T16:20:58;99719.75;;;17.16;29.86
48874;BME280;66155;46.204;5.220;2023-02-15T16:31:31;99734.94;;;16.58;30.23
48874;BME280;66155;46.204;5.220;2023-02-15T16:36:31;99743.00;;;16.25;31.10
48874;BME280;66155;46.204;5.220;2023-02-15T16:41:32;99749.72;;;15.95;31.37
48874;BME280;66155;46.204;5.220;2023-02-15T16:46:37;99748.81;;;15.74;32.27
48874;BME280;66155;46.204;5.220;2023-02-15T16:51:41;99753.38;;;15.52;32.89
48874;BME280;66155;46.204;5.220;2023-02-15T16:56:44;99750.59;;;15.31;34.43
48874;BME280;66155;46.204;5.220;2023-02-15T17:01:46;99759.91;;;15.12;33.10
48874;BME280;66155;46.204;5.220;2023-02-15T17:07:17;99759.72;;;14.91;35.77
48874;BME280;66155;46.204;5.220;2023-02-15T17:12:45;99757.25;;;14.57;37.48
48874;BME280;66155;46.204;5.220;2023-02-15T17:17:46;99769.16;;;14.43;35.64
48874;BME280;66155;46.204;5.220;2023-02-15T17:22:46;99780.31;;;14.33;35.63
48874;BME280;66155;46.204;5.220;2023-02-15T17:27:51;99779.38;;;14.22;36.39
48874;BME280;66155;46.204;5.220;2023-02-15T17:32:55;99782.78;;;14.01;37.63
48874;BME280;66155;46.204;5.220;2023-02-15T17:38:18;99787.56;;;13.87;39.22
48874;BME280;66155;46.204;5.220;2023-02-15T17:43:19;99789.47;;;13.75;37.68
48874;BME280;66155;46.204;5.220;2023-02-15T17:48:22;99796.97;;;13.49;39.18
48874;BME280;66155;46.204;5.220;2023-02-15T17:53:24;99787.63;;;13.24;39.96
48874;BME280;66155;46.204;5.220;2023-02-15T17:58:25;99789.16;;;13.20;39.85
48874;BME280;66155;46.204;5.220;2023-02-15T18:03:29;99784.97;;;13.07;41.47
48874;BME280;66155;46.204;5.220;2023-02-15T18:08:52;99779.59;;;12.97;41.83
48874;BME280;66155;46.204;5.220;2023-02-15T18:14:10;99780.63;;;12.96;40.65
48874;BME280;66155;46.204;5.220;2023-02-15T18:19:22;99786.94;;;12.83;44.06
48874;BME280;66155;46.204;5.220;2023-02-15T18:24:25;99783.91;;;12.74;43.41
48874;BME280;66155;46.204;5.220;2023-02-15T18:29:25;99788.38;;;12.62;43.50
48874;BME280;66155;46.204;5.220;2023-02-15T18:34:29;99783.50;;;12.54;43.19
48874;BME280;66155;46.204;5.220;2023-02-15T18:39:39;99794.78;;;12.43;45.63
48874;BME280;66155;46.204;5.220;2023-02-15T18:44:39;99795.38;;;12.33;45.25
48874;BME280;66155;46.204;5.220;2023-02-15T18:49:40;99793.56;;;12.22;45.91
48874;BME280;66155;46.204;5.220;2023-02-15T18:54:40;99784.28;;;12.14;46.19
48874;BME280;66155;46.204;5.220;2023-02-15T18:59:41;99791.66;;;12.05;44.99
48874;BME280;66155;46.204;5.220;2023-02-15T19:04:43;99795.28;;;12.04;44.96
48874;BME280;66155;46.204;5.220;2023-02-15T19:09:50;99791.31;;;12.02;45.13
48874;BME280;66155;46.204;5.220;2023-02-15T19:14:52;99792.81;;;11.97;46.14
48874;BME280;66155;46.204;5.220;2023-02-15T19:19:52;99795.53;;;11.91;46.76
48874;BME280;66155;46.204;5.220;2023-02-15T19:24:53;99792.47;;;11.94;45.99
48874;BME280;66155;46.204;5.220;2023-02-15T19:29:56;99788.81;;;11.95;45.67
48874;BME280;66155;46.204;5.220;2023-02-15T19:34:57;99804.56;;;11.88;45.68
48874;BME280;66155;46.204;5.220;2023-02-15T19:39:59;99800.28;;;11.82;46.09
48874;BME280;66155;46.204;5.220;2023-02-15T19:45:00;99800.72;;;11.79;45.51
48874;BME280;66155;46.204;5.220;2023-02-15T19:50:04;99805.81;;;11.74;45.54
48874;BME280;66155;46.204;5.220;2023-02-15T19:55:05;99812.97;;;11.67;45.84
48874;BME280;66155;46.204;5.220;2023-02-15T20:00:15;99815.66;;;11.60;46.29
48874;BME280;66155;46.204;5.220;2023-02-15T20:05:18;99819.19;;;11.54;45.83
48874;BME280;66155;46.204;5.220;2023-02-15T20:10:21;99816.25;;;11.50;45.59
48874;BME280;66155;46.204;5.220;2023-02-15T20:15:25;99815.41;;;11.38;46.30
48874;BME280;66155;46.204;5.220;2023-02-15T20:20:41;99823.34;;;11.31;46.14
48874;BME280;66155;46.204;5.220;2023-02-15T20:25:43;99820.84;;;11.25;45.88
48874;BME280;66155;46.204;5.220;2023-02-15T20:30:43;99817.28;;;11.19;45.84
48874;BME280;66155;46.204;5.220;2023-02-15T20:35:45;99822.16;;;11.15;45.71
48874;BME280;66155;46.204;5.220;2023-02-15T20:40:46;99818.63;;;11.10;45.86
48874;BME280;66155;46.204;5.220;2023-02-15T20:46:05;99826.41;;;10.98;45.83
48874;BME280;66155;46.204;5.220;2023-02-15T20:51:16;99815.00;;;10.80;47.15
48874;BME280;66155;46.204;5.220;2023-02-15T20:56:21;99819.16;;;10.70;46.71
48874;BME280;66155;46.204;5.220;2023-02-15T21:01:22;99820.22;;;10.62;46.84
48874;BME280;66155;46.204;5.220;2023-02-15T21:06:23;99827.69;;;10.58;46.45
48874;BME280;66155;46.204;5.220;2023-02-15T21:11:23;99818.94;;;10.53;46.57
48874;BME280;66155;46.204;5.220;2023-02-15T21:16:23;99821.69;;;10.39;47.53
48874;BME280;66155;46.204;5.220;2023-02-15T21:21:24;99818.03;;;10.22;47.72
48874;BME280;66155;46.204;5.220;2023-02-15T21:26:24;99821.69;;;10.14;47.86
48874;BME280;66155;46.204;5.220;2023-02-15T21:31:25;99835.38;;;10.09;47.77
48874;BME280;66155;46.204;5.220;2023-02-15T21:36:26;99838.66;;;9.98;48.45
48874;BME280;66155;46.204;5.220;2023-02-15T21:41:27;99839.56;;;9.85;47.84
48874;BME280;66155;46.204;5.220;2023-02-15T21:46:45;99840.81;;;9.83;47.51
48874;BME280;66155;46.204;5.220;2023-02-15T21:52:04;99838.03;;;9.78;47.20
48874;BME280;66155;46.204;5.220;2023-02-15T21:57:15;99853.00;;;9.82;47.32
48874;BME280;66155;46.204;5.220;2023-02-15T22:02:27;99858.06;;;9.77;46.87
48874;BME280;66155;46.204;5.220;2023-02-15T22:07:28;99845.66;;;9.79;46.64
48874;BME280;66155;46.204;5.220;2023-02-15T22:12:28;99841.91;;;9.68;46.86
48874;BME280;66155;46.204;5.220;2023-02-15T22:17:29;99849.19;;;9.60;47.15
48874;BME280;66155;46.204;5.220;2023-02-15T22:22:29;99840.34;;;9.61;46.56
48874;BME280;66155;46.204;5.220;2023-02-15T22:27:36;99845.19;;;9.57;46.92
48874;BME280;66155;46.204;5.220;2023-02-15T22:32:38;99846.84;;;9.51;46.80
48874;BME280;66155;46.204;5.220;2023-02-15T22:37:39;99857.06;;;9.46;47.17
48874;BME280;66155;46.204;5.220;2023-02-15T22:42:41;99853.97;;;9.31;47.01
48874;BME280;66155;46.204;5.220;2023-02-15T22:47:42;99845.63;;;9.22;47.19
48874;BME280;66155;46.204;5.220;2023-02-15T22:52:43;99860.59;;;9.27;47.17
48874;BME280;66155;46.204;5.220;2023-02-15T22:57:46;99851.81;;;9.21;47.15
48874;BME280;66155;46.204;5.220;2023-02-15T23:02:47;99855.97;;;9.29;46.92
48874;BME280;66155;46.204;5.220;2023-02-15T23:07:48;99859.59;;;9.28;47.41
48874;BME280;66155;46.204;5.220;2023-02-15T23:12:54;99861.81;;;9.24;47.42
48874;BME280;66155;46.204;5.220;2023-02-15T23:23:21;99862.44;;;9.13;47.21
48874;BME280;66155;46.204;5.220;2023-02-15T23:28:27;99869.66;;;9.11;47.52
48874;BME280;66155;46.204;5.220;2023-02-15T23:33:32;99867.13;;;9.04;47.10
48874;BME280;66155;46.204;5.220;2023-02-15T23:38:33;99852.72;;;9.02;47.38
48874;BME280;66155;46.204;5.220;2023-02-15T23:43:34;99860.53;;;8.95;47.16
48874;BME280;66155;46.204;5.220;2023-02-15T23:48:37;99872.34;;;8.91;47.28
48874;BME280;66155;46.204;5.220;2023-02-15T23:53:37;99872.38;;;8.84;47.22
48874;BME280;66155;46.204;5.220;2023-02-15T23:58:40;99871.19;;;8.80;47.43
